createdAt,value
2019-05-23T00:01:14.104Z,10.00
2019-05-23T00:03:48.654Z,10.00
2019-05-23T00:06:19.500Z,9.90
2019-05-23T00:08:49.986Z,9.90
2019-05-23T00:11:30.609Z,9.90
2019-05-23T00:14:05.591Z,9.80
2019-05-23T00:16:34.797Z,9.80
2019-05-23T00:19:04.557Z,9.80
2019-05-23T00:21:33.415Z,9.80
2019-05-23T00:24:04.074Z,9.80
2019-05-23T00:26:34.808Z,9.80
2019-05-23T00:29:10.651Z,9.80
2019-05-23T00:31:41.380Z,9.80
2019-05-23T00:34:11.036Z,9.80
2019-05-23T00:36:39.982Z,9.80
2019-05-23T00:39:09.787Z,9.80
2019-05-23T00:41:40.220Z,9.80
2019-05-23T00:44:10.295Z,9.70
2019-05-23T00:46:39.714Z,9.70
2019-05-23T00:49:09.168Z,9.70
2019-05-23T00:51:38.324Z,9.70
2019-05-23T00:54:09.450Z,9.70
2019-05-23T00:56:38.798Z,9.60
2019-05-23T00:59:08.306Z,9.60
2019-05-23T01:01:39.122Z,9.50
2019-05-23T01:04:11.808Z,9.60
2019-05-23T01:06:44.684Z,9.50
2019-05-23T01:09:14.773Z,9.50
2019-05-23T01:11:45.559Z,9.50
2019-05-23T01:14:18.522Z,9.50
2019-05-23T01:16:48.743Z,9.50
2019-05-23T01:19:19.406Z,9.50
2019-05-23T01:21:49.841Z,9.40
2019-05-23T01:24:23.280Z,9.40
2019-05-23T01:26:52.886Z,9.40
2019-05-23T01:29:24.218Z,9.40
2019-05-23T01:31:54.699Z,9.30
2019-05-23T01:34:25.629Z,9.30
2019-05-23T01:36:54.692Z,9.30
2019-05-23T01:39:23.587Z,9.30
2019-05-23T01:41:52.926Z,9.40
2019-05-23T01:44:22.601Z,9.40
2019-05-23T01:46:51.608Z,9.50
2019-05-23T01:49:21.296Z,9.60
2019-05-23T01:51:50.658Z,9.60
2019-05-23T01:54:19.578Z,9.60
2019-05-23T01:56:48.453Z,9.60
2019-05-23T01:59:17.703Z,9.60
2019-05-23T02:01:47.194Z,9.60
2019-05-23T02:04:16.047Z,9.70
2019-05-23T02:06:45.306Z,9.70
2019-05-23T02:09:14.326Z,9.80
2019-05-23T02:11:43.388Z,9.80
2019-05-23T02:14:12.252Z,9.80
2019-05-23T02:16:42.670Z,9.80
2019-05-23T02:19:13.765Z,9.70
2019-05-23T02:21:43.236Z,9.70
2019-05-23T02:24:12.648Z,9.70
2019-05-23T02:26:42.713Z,9.70
2019-05-23T02:29:12.077Z,9.70
2019-05-23T02:31:41.392Z,9.70
2019-05-23T02:34:10.758Z,9.70
2019-05-23T02:36:39.733Z,9.60
2019-05-23T02:39:13.855Z,9.60
2019-05-23T02:41:47.375Z,9.60
2019-05-23T02:44:20.565Z,9.60
2019-05-23T02:46:57.024Z,9.60
2019-05-23T02:49:31.013Z,9.60
2019-05-23T02:52:15.778Z,9.60
2019-05-23T02:54:44.660Z,9.60
2019-05-23T02:57:16.072Z,9.60
2019-05-23T02:59:53.396Z,9.60
2019-05-23T03:02:35.945Z,9.60
2019-05-23T03:05:10.893Z,9.70
2019-05-23T03:07:40.150Z,9.70
2019-05-23T03:10:09.756Z,9.70
2019-05-23T03:12:41.214Z,9.80
2019-05-23T03:15:12.728Z,9.80
2019-05-23T03:17:44.788Z,9.80
2019-05-23T03:20:16.652Z,9.80
2019-05-23T03:23:02.291Z,9.80
2019-05-23T03:25:40.882Z,9.80
2019-05-23T03:28:12.796Z,9.80
2019-05-23T03:30:44.218Z,9.80
2019-05-23T03:33:14.737Z,9.80
2019-05-23T03:35:51.304Z,9.80
2019-05-23T03:38:20.882Z,9.80
2019-05-23T03:40:50.327Z,9.80
2019-05-23T03:43:20.832Z,9.80
2019-05-23T03:45:53.998Z,9.80
2019-05-23T03:48:24.318Z,9.80
2019-05-23T03:50:55.638Z,9.80
2019-05-23T03:53:27.510Z,9.80
2019-05-23T03:55:57.658Z,9.90
2019-05-23T03:58:27.260Z,9.90
2019-05-23T04:00:57.553Z,9.80
2019-05-23T04:03:27.322Z,9.80
2019-05-23T04:05:57.131Z,9.90
2019-05-23T04:08:27.140Z,9.90
2019-05-23T04:10:56.822Z,9.80
2019-05-23T04:13:25.824Z,9.90
2019-05-23T04:15:54.792Z,10.00
2019-05-23T04:18:23.952Z,10.00
2019-05-23T04:20:56.699Z,10.00
2019-05-23T04:23:26.542Z,10.00
2019-05-23T04:25:55.396Z,10.00
2019-05-23T04:28:24.400Z,10.00
2019-05-23T04:30:53.469Z,10.00
2019-05-23T04:33:22.542Z,10.00
2019-05-23T04:35:51.557Z,10.00
2019-05-23T04:38:20.542Z,10.00
2019-05-23T04:40:52.905Z,10.10
2019-05-23T04:43:22.026Z,10.10
2019-05-23T04:45:50.989Z,10.20
2019-05-23T04:48:19.859Z,10.10
2019-05-23T04:50:48.777Z,10.10
2019-05-23T04:53:17.746Z,10.20
2019-05-23T04:55:47.604Z,10.20
2019-05-23T04:58:17.338Z,10.20
2019-05-23T05:00:46.305Z,10.20
2019-05-23T05:03:20.026Z,10.20
2019-05-23T05:05:52.014Z,10.20
2019-05-23T05:08:23.593Z,10.20
2019-05-23T05:10:52.664Z,10.20
2019-05-23T05:13:21.671Z,10.30
2019-05-23T05:15:50.835Z,10.30
2019-05-23T05:18:21.958Z,10.20
2019-05-23T05:20:52.214Z,10.20
2019-05-23T05:23:21.889Z,10.20
2019-05-23T05:25:50.748Z,10.20
2019-05-23T05:28:22.449Z,10.20
2019-05-23T05:30:52.004Z,10.20
2019-05-23T05:33:20.978Z,10.20
2019-05-23T05:35:52.895Z,10.20
2019-05-23T05:38:21.855Z,10.20
2019-05-23T05:40:53.650Z,10.20
2019-05-23T05:43:22.960Z,10.20
2019-05-23T05:45:51.861Z,10.30
2019-05-23T05:48:21.487Z,10.30
2019-05-23T05:50:51.049Z,10.40
2019-05-23T05:53:19.980Z,10.40
2019-05-23T05:55:48.862Z,10.50
2019-05-23T05:58:17.799Z,10.50
2019-05-23T06:00:51.060Z,10.60
2019-05-23T06:03:20.364Z,10.70
2019-05-23T06:05:50.846Z,10.70
2019-05-23T06:08:21.372Z,10.70
2019-05-23T06:10:50.230Z,10.70
2019-05-23T06:13:19.443Z,10.70
2019-05-23T06:15:52.664Z,10.80
2019-05-23T06:18:21.926Z,10.80
2019-05-23T06:20:51.233Z,10.80
2019-05-23T06:23:20.387Z,10.80
2019-05-23T06:25:59.228Z,10.80
2019-05-23T06:28:36.778Z,10.80
2019-05-23T06:31:05.773Z,10.80
2019-05-23T06:33:35.313Z,10.80
2019-05-23T06:36:04.977Z,10.80
2019-05-23T06:38:34.812Z,10.80
2019-05-23T06:41:05.460Z,10.80
2019-05-23T06:43:35.991Z,10.90
2019-05-23T06:46:05.816Z,10.90
2019-05-23T06:48:35.166Z,10.90
2019-05-23T06:51:04.806Z,11.00
2019-05-23T06:53:34.886Z,11.00
2019-05-23T06:56:08.681Z,11.00
2019-05-23T06:58:41.580Z,11.10
2019-05-23T07:01:10.888Z,11.10
2019-05-23T07:03:44.065Z,11.20
2019-05-23T07:06:16.678Z,11.20
2019-05-23T07:08:47.514Z,11.20
2019-05-23T07:11:20.041Z,11.20
2019-05-23T07:13:49.196Z,11.30
2019-05-23T07:16:18.075Z,11.30
2019-05-23T07:18:46.908Z,11.30
2019-05-23T07:21:15.925Z,11.30
2019-05-23T07:23:44.961Z,11.30
2019-05-23T07:26:14.566Z,11.30
2019-05-23T07:28:43.506Z,11.30
2019-05-23T07:31:12.615Z,11.30
2019-05-23T07:33:59.892Z,11.30
2019-05-23T07:36:13.477Z,11.30
2019-05-23T07:38:43.050Z,11.30
2019-05-23T07:41:12.437Z,11.40
2019-05-23T07:43:41.404Z,11.40
2019-05-23T07:46:10.383Z,11.40
2019-05-23T07:48:39.815Z,11.40
2019-05-23T07:51:08.807Z,11.40
2019-05-23T07:53:43.965Z,11.40
2019-05-23T07:56:14.423Z,11.50
2019-05-23T07:58:43.262Z,11.50
2019-05-23T08:01:14.282Z,11.50
2019-05-23T08:03:43.862Z,11.60
2019-05-23T08:06:13.009Z,11.60
2019-05-23T08:08:41.963Z,11.50
2019-05-23T08:11:10.900Z,11.50
2019-05-23T08:13:39.891Z,11.50
2019-05-23T08:16:08.766Z,11.50
2019-05-23T08:18:37.673Z,11.50
2019-05-23T08:21:06.548Z,11.50
2019-05-23T08:23:35.413Z,11.50
2019-05-23T08:26:04.323Z,11.50
2019-05-23T08:28:33.477Z,11.50
2019-05-23T08:31:06.791Z,11.60
2019-05-23T08:33:37.194Z,11.60
2019-05-23T08:36:06.653Z,11.70
2019-05-23T08:38:36.773Z,11.70
2019-05-23T08:41:06.922Z,11.80
2019-05-23T08:43:35.961Z,11.80
2019-05-23T08:46:04.836Z,11.80
2019-05-23T08:48:33.918Z,11.90
2019-05-23T08:51:02.862Z,12.00
2019-05-23T08:53:31.782Z,12.00
2019-05-23T08:56:00.900Z,12.10
2019-05-23T08:58:29.760Z,12.10
2019-05-23T09:00:58.672Z,12.20
2019-05-23T09:03:27.991Z,12.20
2019-05-23T09:05:58.065Z,12.20
2019-05-23T09:08:27.739Z,12.20
2019-05-23T09:10:57.039Z,12.20
2019-05-23T09:13:26.030Z,12.20
2019-05-23T09:15:55.027Z,12.10
2019-05-23T09:18:24.519Z,12.10
2019-05-23T09:20:53.682Z,12.10
2019-05-23T09:23:23.230Z,12.10
2019-05-23T09:25:52.187Z,12.00
2019-05-23T09:28:21.145Z,12.00
2019-05-23T09:30:53.674Z,12.00
2019-05-23T09:33:23.436Z,12.00
2019-05-23T09:35:52.561Z,12.00
2019-05-23T09:38:21.935Z,12.00
2019-05-23T09:40:51.164Z,12.10
2019-05-23T09:43:23.930Z,12.10
2019-05-23T09:45:52.796Z,12.10
2019-05-23T09:48:22.805Z,12.20
2019-05-23T09:50:51.682Z,12.30
2019-05-23T09:53:22.535Z,12.30
2019-05-23T09:55:51.432Z,12.40
2019-05-23T09:58:20.499Z,12.50
2019-05-23T10:00:49.477Z,12.50
2019-05-23T10:03:18.988Z,12.50
2019-05-23T10:05:47.853Z,12.50
2019-05-23T10:08:16.713Z,12.50
2019-05-23T10:10:45.623Z,12.50
2019-05-23T10:13:14.580Z,12.50
2019-05-23T10:15:45.066Z,12.50
2019-05-23T10:18:18.237Z,12.50
2019-05-23T10:20:47.494Z,12.50
2019-05-23T10:23:17.254Z,12.40
2019-05-23T10:25:46.333Z,12.50
2019-05-23T10:28:15.609Z,12.50
2019-05-23T10:30:44.500Z,12.50
2019-05-23T10:33:13.629Z,12.50
2019-05-23T10:35:58.919Z,12.60
2019-05-23T10:38:13.616Z,12.70
2019-05-23T10:40:42.867Z,12.60
2019-05-23T10:43:14.934Z,12.70
2019-05-23T10:45:43.798Z,12.80
2019-05-23T10:48:13.992Z,12.80
2019-05-23T10:50:45.187Z,12.90
2019-05-23T10:53:17.604Z,12.90
2019-05-23T10:55:46.486Z,12.90
2019-05-23T10:58:20.091Z,12.80
2019-05-23T11:00:50.708Z,12.80
2019-05-23T11:03:20.264Z,12.90
2019-05-23T11:05:49.677Z,13.10
2019-05-23T11:08:18.564Z,13.20
2019-05-23T11:10:47.745Z,13.30
2019-05-23T11:13:16.867Z,13.30
2019-05-23T11:15:45.824Z,13.40
2019-05-23T11:18:14.950Z,13.50
2019-05-23T11:20:45.660Z,13.60
2019-05-23T11:23:20.574Z,13.80
2019-05-23T11:25:50.394Z,14.00
2019-05-23T11:28:19.377Z,14.10
2019-05-23T11:30:58.201Z,14.30
2019-05-23T11:33:27.869Z,14.80
2019-05-23T11:35:58.570Z,15.50
2019-05-23T11:38:27.598Z,15.90
2019-05-23T11:40:56.451Z,16.10
2019-05-23T11:43:25.709Z,15.90
2019-05-23T11:46:05.250Z,15.80
2019-05-23T11:48:35.204Z,15.50
2019-05-23T11:51:04.076Z,15.10
2019-05-23T11:53:33.109Z,15.00
2019-05-23T11:56:02.284Z,14.90
2019-05-23T11:58:32.716Z,14.80
2019-05-23T12:01:19.885Z,14.70
2019-05-23T12:03:42.330Z,14.70
2019-05-23T12:06:11.498Z,14.60
2019-05-23T12:08:44.568Z,14.50
2019-05-23T12:11:14.105Z,14.50
2019-05-23T12:13:43.298Z,14.50
2019-05-23T12:16:12.277Z,14.40
2019-05-23T12:18:41.554Z,14.50
2019-05-23T12:21:10.509Z,14.40
2019-05-23T12:23:39.385Z,14.40
2019-05-23T12:26:09.209Z,14.40
2019-05-23T12:28:38.240Z,14.50
2019-05-23T12:31:09.617Z,14.50
2019-05-23T12:33:38.661Z,14.50
2019-05-23T12:36:07.886Z,14.60
2019-05-23T12:38:36.820Z,14.70
2019-05-23T12:41:08.055Z,14.70
2019-05-23T12:43:36.980Z,14.70
2019-05-23T12:46:06.103Z,14.60
2019-05-23T12:48:48.636Z,14.50
2019-05-23T12:51:31.547Z,14.60
2019-05-23T12:54:00.570Z,14.60
2019-05-23T12:56:29.970Z,14.80
2019-05-23T12:58:59.372Z,14.90
2019-05-23T13:01:29.008Z,14.90
2019-05-23T13:03:58.323Z,15.30
2019-05-23T13:06:27.451Z,15.50
2019-05-23T13:08:56.402Z,15.80
2019-05-23T13:11:28.483Z,15.90
2019-05-23T13:13:57.413Z,16.00
2019-05-23T13:16:26.462Z,15.70
2019-05-23T13:18:55.493Z,15.70
2019-05-23T13:21:24.383Z,15.50
2019-05-23T13:23:53.294Z,15.60
2019-05-23T13:26:23.779Z,15.40
2019-05-23T13:28:53.746Z,15.40
2019-05-23T13:31:22.713Z,15.30
2019-05-23T13:33:51.619Z,15.20
2019-05-23T13:36:20.599Z,15.10
2019-05-23T13:38:52.449Z,15.10
2019-05-23T13:41:21.412Z,15.20
2019-05-23T13:43:50.492Z,15.30
2019-05-23T13:46:19.606Z,15.40
2019-05-23T13:48:48.502Z,15.50
2019-05-23T13:51:17.368Z,15.40
2019-05-23T13:53:46.424Z,15.40
2019-05-23T13:56:19.680Z,15.40
2019-05-23T13:58:48.716Z,15.20
2019-05-23T14:01:19.047Z,15.10
2019-05-23T14:03:48.130Z,14.90
2019-05-23T14:06:19.742Z,14.80
2019-05-23T14:08:48.712Z,14.80
2019-05-23T14:11:20.793Z,14.70
2019-05-23T14:13:59.156Z,14.70
2019-05-23T14:16:20.630Z,14.80
2019-05-23T14:18:49.605Z,14.80
2019-05-23T14:21:18.494Z,14.90
2019-05-23T14:23:50.389Z,14.80
2019-05-23T14:26:29.265Z,14.70
2019-05-23T14:28:58.223Z,14.70
2019-05-23T14:31:28.669Z,14.50
2019-05-23T14:34:02.137Z,14.50
2019-05-23T14:36:35.511Z,14.40
2019-05-23T14:39:08.910Z,14.30
2019-05-23T14:41:45.422Z,14.10
2019-05-23T14:44:10.071Z,14.10
2019-05-23T14:46:56.896Z,14.10
2019-05-23T14:49:27.491Z,14.00
2019-05-23T14:51:57.976Z,13.90
2019-05-23T14:54:31.343Z,13.90
2019-05-23T14:57:00.203Z,13.90
2019-05-23T14:59:30.136Z,13.90
2019-05-23T15:01:59.311Z,13.90
2019-05-23T15:04:28.715Z,13.90
2019-05-23T15:06:57.733Z,13.90
2019-05-23T15:09:29.482Z,13.90
2019-05-23T15:11:58.844Z,13.90
2019-05-23T15:14:27.927Z,13.90
2019-05-23T15:16:56.813Z,13.90
2019-05-23T15:19:39.053Z,14.00
2019-05-23T15:21:56.931Z,14.00
2019-05-23T15:24:26.279Z,14.00
2019-05-23T15:26:57.968Z,14.00
2019-05-23T15:29:29.298Z,14.00
2019-05-23T15:32:02.532Z,13.90
2019-05-23T15:34:29.395Z,13.90
2019-05-23T15:36:58.325Z,13.90
2019-05-23T15:39:27.293Z,13.80
2019-05-23T15:41:56.269Z,13.80
2019-05-23T15:44:30.215Z,13.70
2019-05-23T15:47:08.143Z,13.70
2019-05-23T15:49:38.859Z,13.60
2019-05-23T15:52:18.493Z,13.60
2019-05-23T15:54:52.092Z,13.50
2019-05-23T15:57:42.338Z,13.50
2019-05-23T16:00:13.317Z,13.40
2019-05-23T16:02:43.833Z,13.40
2019-05-23T16:05:14.350Z,13.30
2019-05-23T16:07:43.366Z,13.30
2019-05-23T16:10:14.088Z,13.30
2019-05-23T16:12:42.986Z,13.30
2019-05-23T16:15:11.954Z,13.30
2019-05-23T16:17:44.126Z,13.30
2019-05-23T16:20:13.624Z,13.30
2019-05-23T16:22:42.577Z,13.40
2019-05-23T16:25:11.577Z,13.30
2019-05-23T16:27:40.596Z,13.40
2019-05-23T16:30:09.667Z,13.40
2019-05-23T16:32:38.694Z,13.40
2019-05-23T16:35:07.844Z,13.40
2019-05-23T16:37:37.133Z,13.40
2019-05-23T16:40:09.438Z,13.40
2019-05-23T16:42:38.418Z,13.50
2019-05-23T16:45:08.478Z,13.40
2019-05-23T16:47:37.597Z,13.40
2019-05-23T16:50:10.233Z,13.40
2019-05-23T16:52:39.344Z,13.30
2019-05-23T16:55:10.322Z,13.40
2019-05-23T16:57:46.254Z,13.40
2019-05-23T17:00:21.597Z,13.30
2019-05-23T17:02:52.838Z,13.20
2019-05-23T17:05:26.365Z,13.20
2019-05-23T17:08:04.312Z,13.20
2019-05-23T17:10:37.873Z,13.10
2019-05-23T17:13:08.474Z,13.10
2019-05-23T17:15:44.418Z,13.00
2019-05-23T17:18:31.460Z,13.00
2019-05-23T17:21:01.903Z,12.90
2019-05-23T17:23:32.529Z,12.90
2019-05-23T17:26:19.452Z,12.90
2019-05-23T17:28:49.891Z,12.90
2019-05-23T17:31:21.432Z,12.80
2019-05-23T17:33:51.259Z,12.80
2019-05-23T17:36:20.581Z,12.80
2019-05-23T17:38:49.506Z,12.80
2019-05-23T17:41:19.216Z,12.80
2019-05-23T17:43:48.076Z,12.80
2019-05-23T17:46:17.148Z,12.80
2019-05-23T17:48:46.252Z,12.70
2019-05-23T17:51:15.241Z,12.70
2019-05-23T17:53:47.223Z,12.70
2019-05-23T17:56:16.137Z,12.70
2019-05-23T17:58:47.882Z,12.70
2019-05-23T18:01:16.796Z,12.60
2019-05-23T18:03:45.664Z,12.60
2019-05-23T18:06:14.525Z,12.60
2019-05-23T18:08:43.453Z,12.60
2019-05-23T18:11:12.931Z,12.50
2019-05-23T18:13:41.987Z,12.50
2019-05-23T18:16:12.306Z,12.50
2019-05-23T18:18:41.500Z,12.50
2019-05-23T18:21:10.805Z,12.40
2019-05-23T18:23:39.889Z,12.30
2019-05-23T18:26:08.934Z,12.30
2019-05-23T18:28:38.861Z,12.30
2019-05-23T18:31:11.066Z,12.20
2019-05-23T18:33:43.374Z,12.20
2019-05-23T18:36:12.436Z,12.20
2019-05-23T18:38:41.403Z,12.20
2019-05-23T18:41:11.102Z,12.10
2019-05-23T18:43:40.314Z,12.10
2019-05-23T18:46:17.068Z,12.00
2019-05-23T18:48:45.920Z,12.00
2019-05-23T18:51:14.798Z,12.00
2019-05-23T18:53:43.717Z,12.00
2019-05-23T18:56:12.767Z,11.90
2019-05-23T18:58:41.843Z,11.90
2019-05-23T19:01:15.524Z,11.80
2019-05-23T19:03:44.624Z,11.80
2019-05-23T19:06:13.535Z,11.80
2019-05-23T19:08:42.795Z,11.80
2019-05-23T19:11:20.795Z,11.80
2019-05-23T19:13:42.800Z,11.80
2019-05-23T19:16:11.726Z,11.70
2019-05-23T19:18:40.943Z,11.70
2019-05-23T19:21:11.374Z,11.70
2019-05-23T19:23:40.885Z,11.70
2019-05-23T19:26:10.288Z,11.70
2019-05-23T19:28:40.759Z,11.70
2019-05-23T19:31:10.164Z,11.60
2019-05-23T19:33:39.658Z,11.60
2019-05-23T19:36:10.479Z,11.50
2019-05-23T19:38:39.503Z,11.50
2019-05-23T19:41:09.956Z,11.50
2019-05-23T19:43:38.917Z,11.50
2019-05-23T19:46:07.941Z,11.40
2019-05-23T19:48:37.639Z,11.40
2019-05-23T19:51:07.014Z,11.40
2019-05-23T19:53:36.544Z,11.30
2019-05-23T19:56:07.179Z,11.30
2019-05-23T19:58:38.920Z,11.30
2019-05-23T20:01:08.246Z,11.30
2019-05-23T20:03:37.216Z,11.30
2019-05-23T20:06:09.895Z,11.20
2019-05-23T20:08:39.412Z,11.20
2019-05-23T20:11:11.373Z,11.20
2019-05-23T20:13:40.449Z,11.20
2019-05-23T20:16:09.526Z,11.20
2019-05-23T20:18:38.372Z,11.20
2019-05-23T20:21:07.434Z,11.10
2019-05-23T20:23:36.361Z,11.10
2019-05-23T20:26:07.865Z,11.10
2019-05-23T20:28:39.511Z,11.00
2019-05-23T20:31:06.906Z,11.00
2019-05-23T20:33:35.871Z,11.00
2019-05-23T20:36:11.899Z,11.00
2019-05-23T20:38:39.833Z,10.90
2019-05-23T20:41:08.828Z,10.90
2019-05-23T20:43:37.841Z,10.90
2019-05-23T20:46:06.822Z,10.80
2019-05-23T20:48:37.135Z,10.80
2019-05-23T20:51:06.062Z,10.70
2019-05-23T20:53:35.172Z,10.70
2019-05-23T20:56:04.460Z,10.70
2019-05-23T20:58:37.979Z,10.70
2019-05-23T21:01:09.230Z,10.70
2019-05-23T21:03:38.362Z,10.70
2019-05-23T21:06:07.750Z,10.60
2019-05-23T21:08:37.100Z,10.60
2019-05-23T21:11:07.565Z,10.60
2019-05-23T21:13:39.402Z,10.50
2019-05-23T21:16:08.794Z,10.60
2019-05-23T21:18:50.437Z,10.50
2019-05-23T21:21:18.486Z,10.60
2019-05-23T21:23:56.681Z,10.50
2019-05-23T21:26:23.097Z,10.50
2019-05-23T21:28:52.110Z,10.50
2019-05-23T21:31:23.500Z,10.50
2019-05-23T21:33:57.709Z,10.50
2019-05-23T21:36:42.094Z,10.50
2019-05-23T21:39:12.055Z,10.50
2019-05-23T21:41:49.043Z,10.40
2019-05-23T21:44:18.425Z,10.40
2019-05-23T21:46:56.163Z,10.40
2019-05-23T21:49:27.216Z,10.40
2019-05-23T21:54:47.915Z,10.30
2019-05-23T21:57:22.657Z,10.30
2019-05-23T21:59:52.632Z,10.30
2019-05-23T22:04:05.667Z,10.30
2019-05-23T22:06:02.964Z,10.30
2019-05-23T22:11:09.995Z,10.40
2019-05-23T22:13:39.132Z,10.30
2019-05-23T22:16:12.424Z,10.30
2019-05-23T22:18:44.151Z,10.30
2019-05-23T22:21:25.816Z,10.30
2019-05-23T22:24:03.265Z,10.30
2019-05-23T22:26:46.815Z,10.30
2019-05-23T22:29:36.399Z,10.20
2019-05-23T22:32:09.097Z,10.20
2019-05-23T22:34:40.094Z,10.20
2019-05-23T22:37:10.656Z,10.20
2019-05-23T22:39:39.715Z,10.20
2019-05-23T22:42:09.893Z,10.20
2019-05-23T22:44:38.873Z,10.20
2019-05-23T22:47:09.575Z,10.20
2019-05-23T22:49:38.738Z,10.20
2019-05-23T22:52:07.696Z,10.10
2019-05-23T22:54:36.620Z,10.10
2019-05-23T22:57:05.575Z,10.00
2019-05-23T22:59:34.475Z,10.00
2019-05-23T23:02:10.626Z,10.10
2019-05-23T23:04:39.502Z,10.00
2019-05-23T23:07:09.465Z,10.00
2019-05-23T23:09:38.377Z,10.00
2019-05-23T23:12:07.258Z,10.00
2019-05-23T23:14:36.120Z,10.00
2019-05-23T23:17:05.041Z,10.00
2019-05-23T23:19:33.924Z,10.00
2019-05-23T23:22:02.778Z,10.00
2019-05-23T23:24:34.428Z,9.90
2019-05-23T23:27:03.288Z,10.00
2019-05-23T23:29:32.160Z,9.90
2019-05-23T23:32:03.785Z,9.90
2019-05-23T23:34:31.587Z,9.90
2019-05-23T23:37:00.440Z,9.90
2019-05-23T23:39:29.299Z,9.90
2019-05-23T23:41:58.201Z,9.90
2019-05-23T23:44:35.524Z,9.90
2019-05-23T23:47:23.802Z,9.90
2019-05-23T23:50:10.222Z,9.90
2019-05-23T23:52:56.986Z,9.90
2019-05-23T23:55:44.088Z,9.90
2019-05-23T23:58:31.505Z,9.90
